Time;durP1;ratioP1;P1;durP2;ratioP2;P2;SDS_P1;SDS_P2;PMS_P1;PMS_P2;Temp;Humidity;BMP_temperature;BMP_pressure;BME280_temperature;BME280_humidity;BME280_pressure;Samples;Min_cycle;Max_cycle;Signal;HPM_P1;HPM_P2
2023/01/13 00:00:01;;;;;;;;;;;;;;;7.38;87.89;99919.13;350358;28;1545;-74
2023/01/13 00:00:12;;;;;;;;;;;;;;;7.38;87.99;99919.13;349086;28;1949;-74
2023/01/13 00:00:22;;;;;;;;;;;;;;;7.38;87.90;99919.13;349200;28;2009;-74
2023/01/13 00:00:33;;;;;;;;;;;;;;;7.37;87.88;99922.63;349165;28;1357;-75
2023/01/13 00:00:43;;;;;;;;;;;;;;;7.37;88.02;99926.97;352561;28;1984;-75
2023/01/13 00:00:53;;;;;;;;;;;;;;;7.37;87.98;99930.44;350234;28;2025;-74
2023/01/13 00:01:10;;;;;;;;;;;;;;;7.37;87.73;99921.75;350330;28;899;-74
2023/01/13 00:01:21;;;;;;;;;;;;;;;7.37;88.08;99924.38;349172;28;923;-74
2023/01/13 00:01:31;;;;;;;;;;;;;;;7.38;87.71;99926.09;350150;28;1030;-75
2023/01/13 00:01:41;;;;;;;;;;;;;;;7.36;88.09;99926.16;350457;28;2082;-75
2023/01/13 00:01:51;;;;;;;;;;;;;;;7.36;88.30;99920.94;347345;28;2015;-74
2023/01/13 00:02:02;;;;;;;;;;;;;;;7.37;87.96;99922.63;346303;28;1369;-74
2023/01/13 00:02:12;;;;;;;;;;;;;;;7.37;87.59;99917.41;348427;28;2010;-75
2023/01/13 00:02:22;;;;;;;;;;;;;;;7.38;88.12;99918.28;350436;28;1394;-75
2023/01/13 00:02:32;;;;;;;;;;;;;;;7.37;87.76;99922.63;350399;28;883;-75
2023/01/13 00:02:43;;;;;;;;;;;;;;;7.37;87.61;99921.75;348116;28;1976;-75
2023/01/13 00:02:53;;;;;;;;;;;;;;;7.36;88.02;99920.94;347341;28;2072;-75
2023/01/13 00:03:03;;;;;;;;;;;;;;;7.37;87.57;99920.03;346009;28;1320;-75
2023/01/13 00:03:13;;;;;;;;;;;;;;;7.37;87.64;99920.03;345553;28;1990;-76
2023/01/13 00:03:23;;;;;;;;;;;;;;;7.37;87.86;99922.63;343603;28;2203;-74
2023/01/13 00:03:34;;;;;;;;;;;;;;;7.37;87.81;99917.41;346454;28;881;-75
2023/01/13 00:03:44;;;;;;;;;;;;;;;7.37;88.22;99922.63;348151;28;2290;-75
2023/01/13 00:03:55;;;;;;;;;;;;;;;7.37;87.99;99922.63;346290;28;2180;-75
2023/01/13 00:04:05;;;;;;;;;;;;;;;7.37;87.93;99922.63;346273;28;900;-74
2023/01/13 00:04:15;;;;;;;;;;;;;;;7.37;88.07;99917.41;346251;28;2010;-74
2023/01/13 00:04:25;;;;;;;;;;;;;;;7.36;87.76;99928.75;344711;28;1495;-74
2023/01/13 00:04:36;;;;;;;;;;;;;;;7.37;88.17;99917.41;343844;28;732;-74
2023/01/13 00:04:46;;;;;;;;;;;;;;;7.36;88.08;99920.09;345883;28;1498;-74
2023/01/13 00:04:56;;;;;;;;;;;;;;;7.37;88.28;99919.16;348479;28;2039;-76
2023/01/13 00:05:06;;;;;;;;;;;;;;;7.35;88.26;99921.84;348765;28;2033;-75
2023/01/13 00:05:17;;;;;;;;;;;;;;;7.34;88.19;99922.72;348631;28;1228;-74
2023/01/13 00:05:27;;;;;;;;;;;;;;;7.37;88.08;99921.75;347359;28;1703;-75
2023/01/13 00:05:37;;;;;;;;;;;;;;;7.37;88.29;99917.41;347712;28;2162;-75
2023/01/13 00:05:47;;;;;;;;;;;;;;;7.37;88.17;99922.63;347411;28;1123;-75
2023/01/13 00:05:58;;;;;;;;;;;;;;;7.37;88.20;99917.41;345695;28;2097;-75
2023/01/13 00:06:09;;;;;;;;;;;;;;;7.37;87.71;99927.84;344726;28;2114;-74
2023/01/13 00:06:20;;;;;;;;;;;;;;;7.38;88.23;99923.47;347810;28;1294;-75
2023/01/13 00:06:30;;;;;;;;;;;;;;;7.37;87.97;99927.84;349898;28;2081;-76
2023/01/13 00:06:40;;;;;;;;;;;;;;;7.36;88.22;99920.09;350878;28;1406;-75
2023/01/13 00:06:50;;;;;;;;;;;;;;;7.37;88.25;99922.63;348993;28;1175;-75
2023/01/13 00:07:01;;;;;;;;;;;;;;;7.37;87.90;99920.03;348386;28;1916;-75
2023/01/13 00:07:11;;;;;;;;;;;;;;;7.36;87.81;99920.94;346854;28;2174;-73
2023/01/13 00:07:21;;;;;;;;;;;;;;;7.38;88.06;99924.34;346418;28;863;-73
2023/01/13 00:07:31;;;;;;;;;;;;;;;7.38;88.12;99923.47;344672;28;2044;-73
2023/01/13 00:07:42;;;;;;;;;;;;;;;7.37;88.31;99922.63;342380;28;2048;-73
2023/01/13 00:07:52;;;;;;;;;;;;;;;7.38;87.96;99923.47;340834;29;1213;-73
2023/01/13 00:08:05;;;;;;;;;;;;;;;7.39;87.96;99920.00;345924;28;2074;-73
2023/01/13 00:08:15;;;;;;;;;;;;;;;7.38;88.31;99921.72;341833;28;2048;-73
2023/01/13 00:08:25;;;;;;;;;;;;;;;7.38;88.29;99918.28;343560;28;1971;-73
2023/01/13 00:08:35;;;;;;;;;;;;;;;7.37;87.75;99920.03;343391;28;916;-74
2023/01/13 00:08:48;;;;;;;;;;;;;;;7.38;88.12;99919.13;344888;28;1612;-74
2023/01/13 00:08:59;;;;;;;;;;;;;;;7.38;87.74;99918.28;339041;28;2094;-74
2023/01/13 00:09:09;;;;;;;;;;;;;;;7.38;87.79;99919.13;337018;29;1858;-74
2023/01/13 00:09:19;;;;;;;;;;;;;;;7.39;87.84;99920.00;334286;29;1199;-74
2023/01/13 00:09:29;;;;;;;;;;;;;;;7.37;88.17;99925.22;336257;29;2016;-74
2023/01/13 00:09:40;;;;;;;;;;;;;;;7.38;88.00;99924.34;337544;28;1989;-74
2023/01/13 00:09:50;;;;;;;;;;;;;;;7.38;88.04;99923.47;339765;28;1671;-74
2023/01/13 00:10:00;;;;;;;;;;;;;;;7.39;87.84;99926.06;337715;29;2005;-74
2023/01/13 00:10:10;;;;;;;;;;;;;;;7.39;87.88;99926.06;338153;29;2034;-73
2023/01/13 00:10:21;;;;;;;;;;;;;;;7.37;88.30;99922.63;335656;29;810;-73
2023/01/13 00:10:32;;;;;;;;;;;;;;;7.36;87.96;99920.94;336703;29;2087;-74
2023/01/13 00:10:45;;;;;;;;;;;;;;;7.37;88.31;99920.03;336242;29;2054;-74
2023/01/13 00:10:55;;;;;;;;;;;;;;;7.37;88.01;99917.41;335291;29;1979;-74
2023/01/13 00:11:05;;;;;;;;;;;;;;;7.37;88.25;99927.84;334416;29;815;-75
2023/01/13 00:11:15;;;;;;;;;;;;;;;7.38;88.10;99923.47;330633;29;2005;-74
2023/01/13 00:11:26;;;;;;;;;;;;;;;7.37;88.43;99927.84;328988;29;2228;-74
2023/01/13 00:11:36;;;;;;;;;;;;;;;7.37;88.52;99917.41;327197;30;1375;-74
2023/01/13 00:11:47;;;;;;;;;;;;;;;7.37;87.96;99922.63;327493;29;2346;-74
2023/01/13 00:11:57;;;;;;;;;;;;;;;7.36;88.35;99920.94;327857;29;2418;-75
2023/01/13 00:12:07;;;;;;;;;;;;;;;7.38;88.11;99919.13;328068;30;824;-75
2023/01/13 00:12:17;;;;;;;;;;;;;;;7.38;87.98;99923.47;326172;30;2692;-75
2023/01/13 00:12:28;;;;;;;;;;;;;;;7.36;88.50;99926.16;326221;30;2636;-73
2023/01/13 00:12:39;;;;;;;;;;;;;;;7.36;88.17;99923.56;323352;30;1922;-73
2023/01/13 00:12:50;;;;;;;;;;;;;;;7.36;88.53;99930.50;325569;30;1476;-74
2023/01/13 00:13:00;;;;;;;;;;;;;;;7.36;88.36;99928.75;323942;30;1512;-74
2023/01/13 00:13:11;;;;;;;;;;;;;;;7.36;88.21;99925.28;324038;29;2081;-74
2023/01/13 00:13:25;;;;;;;;;;;;;;;7.36;88.39;99927.91;328358;30;863;-74
2023/01/13 00:13:37;;;;;;;;;;;;;;;7.36;88.42;99920.94;322068;30;1422;-75
2023/01/13 00:13:47;;;;;;;;;;;;;;;7.36;88.40;99928.75;324811;30;2909;-75
2023/01/13 00:13:57;;;;;;;;;;;;;;;7.38;88.20;99923.47;324698;30;2969;-74
2023/01/13 00:14:07;;;;;;;;;;;;;;;7.37;88.09;99917.41;325905;30;844;-74
2023/01/13 00:14:18;;;;;;;;;;;;;;;7.37;88.21;99921.75;319317;30;3748;-74
2023/01/13 00:14:29;;;;;;;;;;;;;;;7.37;88.01;99930.44;317747;30;3450;-74
2023/01/13 00:14:39;;;;;;;;;;;;;;;7.37;88.04;99927.84;318291;30;3611;-74
2023/01/13 00:14:49;;;;;;;;;;;;;;;7.38;88.35;99929.53;317713;31;2078;-74
2023/01/13 00:14:59;;;;;;;;;;;;;;;7.38;88.25;99919.13;317288;31;2518;-74
2023/01/13 00:15:10;;;;;;;;;;;;;;;7.39;88.66;99927.78;314886;31;2156;-74
2023/01/13 00:15:20;;;;;;;;;;;;;;;7.38;88.47;99926.94;313934;31;1276;-74
2023/01/13 00:15:31;;;;;;;;;;;;;;;7.39;88.37;99928.66;315801;30;2955;-74
2023/01/13 00:15:41;;;;;;;;;;;;;;;7.39;88.68;99920.84;316201;30;3089;-74
2023/01/13 00:15:55;;;;;;;;;;;;;;;7.39;88.04;99920.84;316550;31;838;-74
2023/01/13 00:16:05;;;;;;;;;;;;;;;7.39;87.92;99926.06;315119;31;1335;-74
2023/01/13 00:16:16;;;;;;;;;;;;;;;7.39;87.93;99931.25;314172;31;4177;-76
2023/01/13 00:16:26;;;;;;;;;;;;;;;7.38;88.40;99923.47;313473;31;4484;-75
2023/01/13 00:16:37;;;;;;;;;;;;;;;7.37;87.83;99922.63;314450;31;834;-75
2023/01/13 00:16:47;;;;;;;;;;;;;;;7.37;88.09;99925.22;312737;31;4682;-75
2023/01/13 00:16:57;;;;;;;;;;;;;;;7.35;88.16;99919.22;311537;31;4739;-75
2023/01/13 00:17:08;;;;;;;;;;;;;;;7.36;88.35;99923.56;309786;31;803;-75
2023/01/13 00:17:18;;;;;;;;;;;;;;;7.35;87.96;99924.44;307352;32;3543;-75
2023/01/13 00:17:28;;;;;;;;;;;;;;;7.36;88.07;99923.56;302467;32;3411;-74
2023/01/13 00:17:38;;;;;;;;;;;;;;;7.36;88.37;99920.09;298101;32;4195;-74
2023/01/13 00:17:48;;;;;;;;;;;;;;;7.36;88.21;99926.16;298203;33;2031;-74
2023/01/13 00:17:59;;;;;;;;;;;;;;;7.37;88.45;99925.22;297106;32;5084;-75
2023/01/13 00:18:09;;;;;;;;;;;;;;;7.37;88.52;99925.22;296771;33;6020;-75
2023/01/13 00:18:19;;;;;;;;;;;;;;;7.36;88.46;99927.91;295060;33;2217;-75
2023/01/13 00:18:29;;;;;;;;;;;;;;;7.35;88.12;99919.22;296274;33;5771;-75
2023/01/13 00:18:40;;;;;;;;;;;;;;;7.35;88.34;99914.03;296118;33;6159;-75
2023/01/13 00:18:50;;;;;;;;;;;;;;;7.36;88.42;99920.94;294432;33;2274;-75
2023/01/13 00:19:00;;;;;;;;;;;;;;;7.36;88.06;99917.47;287834;33;6019;-74
2023/01/13 00:19:10;;;;;;;;;;;;;;;7.36;88.05;99920.94;285602;34;6579;-74
2023/01/13 00:19:21;;;;;;;;;;;;;;;7.37;87.97;99920.03;288447;34;1719;-75
2023/01/13 00:19:31;;;;;;;;;;;;;;;7.36;88.03;99915.75;291212;33;5303;-74
2023/01/13 00:19:41;;;;;;;;;;;;;;;7.36;88.25;99920.94;289424;34;5620;-74
2023/01/13 00:19:51;;;;;;;;;;;;;;;7.36;87.99;99920.94;287386;34;2176;-75
2023/01/13 00:20:02;;;;;;;;;;;;;;;7.37;88.06;99922.63;286743;34;7473;-75
2023/01/13 00:20:12;;;;;;;;;;;;;;;7.37;88.50;99922.63;285488;34;7107;-74
2023/01/13 00:20:22;;;;;;;;;;;;;;;7.37;88.45;99924.38;285557;34;845;-74
2023/01/13 00:20:33;;;;;;;;;;;;;;;7.37;87.94;99916.56;283118;34;7858;-75
2023/01/13 00:20:43;;;;;;;;;;;;;;;7.36;88.21;99920.94;282039;34;8759;-75
2023/01/13 00:22:33;;;;;;;;;;;;;;;7.36;88.44;99920.94;2493892;27;19923;-75
2023/01/13 00:22:43;;;;;;;;;;;;;;;7.36;88.37;99920.94;354728;27;2010;-75
2023/01/13 00:22:55;;;;;;;;;;;;;;;7.37;88.02;99920.03;354382;27;890;-74
2023/01/13 00:23:05;;;;;;;;;;;;;;;7.36;88.48;99915.75;353392;28;2114;-75
2023/01/13 00:23:15;;;;;;;;;;;;;;;7.36;88.13;99915.75;352625;28;1282;-74
2023/01/13 00:23:26;;;;;;;;;;;;;;;7.36;88.15;99913.13;350572;28;1064;-74
2023/01/13 00:23:36;;;;;;;;;;;;;;;7.37;87.91;99917.41;351617;28;2063;-74
2023/01/13 00:23:47;;;;;;;;;;;;;;;7.36;88.17;99915.75;350530;28;2016;-74
2023/01/13 00:23:57;;;;;;;;;;;;;;;7.35;88.20;99919.22;349948;28;2007;-74
2023/01/13 00:24:08;;;;;;;;;;;;;;;7.35;88.19;99916.63;349159;28;1096;-74
2023/01/13 00:24:18;;;;;;;;;;;;;;;7.34;87.92;99917.53;349559;28;2013;-74
2023/01/13 00:24:28;;;;;;;;;;;;;;;7.34;88.43;99915.78;349249;28;1991;-75
2023/01/13 00:24:38;;;;;;;;;;;;;;;7.34;88.22;99917.53;349086;28;857;-74
2023/01/13 00:24:48;;;;;;;;;;;;;;;7.34;87.94;99922.72;348871;28;1675;-74
2023/01/13 00:25:00;;;;;;;;;;;;;;;7.33;87.93;99919.28;350162;28;1427;-74
2023/01/13 00:25:10;;;;;;;;;;;;;;;7.32;88.18;99914.94;350543;28;835;-74
2023/01/13 00:25:20;;;;;;;;;;;;;;;7.32;88.05;99919.31;349954;28;2015;-74
2023/01/13 00:25:31;;;;;;;;;;;;;;;7.33;87.92;99921.00;350398;28;2066;-75
2023/01/13 00:25:41;;;;;;;;;;;;;;;7.32;87.74;99920.16;350567;28;922;-75
2023/01/13 00:25:53;;;;;;;;;;;;;;;7.33;87.95;99915.81;350159;28;2061;-75
2023/01/13 00:26:05;;;;;;;;;;;;;;;7.33;88.07;99921.00;346718;28;2033;-74
2023/01/13 00:26:19;;;;;;;;;;;;;;;7.32;87.81;99916.69;347403;28;2060;-75
2023/01/13 00:26:29;;;;;;;;;;;;;;;7.32;88.23;99924.50;350658;28;2017;-75
2023/01/13 00:26:39;;;;;;;;;;;;;;;7.33;88.03;99921.00;348286;28;1464;-75
2023/01/13 00:26:51;;;;;;;;;;;;;;;7.32;87.78;99920.16;348169;28;2010;-75
2023/01/13 00:27:01;;;;;;;;;;;;;;;7.32;87.73;99919.31;346329;28;2031;-75
2023/01/13 00:27:12;;;;;;;;;;;;;;;7.31;87.96;99913.25;346966;28;1434;-75
2023/01/13 00:27:23;;;;;;;;;;;;;;;7.32;88.08;99921.91;346476;28;2063;-75
2023/01/13 00:27:34;;;;;;;;;;;;;;;7.32;87.61;99919.31;346135;28;2011;-74
2023/01/13 00:27:44;;;;;;;;;;;;;;;7.33;88.14;99918.41;346659;28;2092;-74
2023/01/13 00:27:54;;;;;;;;;;;;;;;7.33;88.04;99915.81;347897;28;1297;-74
2023/01/13 00:28:05;;;;;;;;;;;;;;;7.32;88.15;99919.31;346343;28;2004;-74
2023/01/13 00:28:15;;;;;;;;;;;;;;;7.33;88.03;99918.41;347346;28;2057;-74
2023/01/13 00:28:25;;;;;;;;;;;;;;;7.33;88.24;99918.41;348990;28;952;-75
2023/01/13 00:28:36;;;;;;;;;;;;;;;7.34;87.96;99917.53;348931;28;2040;-75
2023/01/13 00:28:46;;;;;;;;;;;;;;;7.34;87.76;99922.72;349134;28;2047;-75
2023/01/13 00:28:57;;;;;;;;;;;;;;;7.34;88.14;99920.13;350450;28;1044;-75
2023/01/13 00:29:07;;;;;;;;;;;;;;;7.33;87.81;99921.00;350549;28;2111;-75
2023/01/13 00:29:20;;;;;;;;;;;;;;;7.34;88.05;99913.16;347890;28;2160;-75
2023/01/13 00:29:30;;;;;;;;;;;;;;;7.34;87.68;99913.16;349075;28;1955;-74
2023/01/13 00:29:40;;;;;;;;;;;;;;;7.34;88.15;99922.72;350458;28;863;-75
2023/01/13 00:29:51;;;;;;;;;;;;;;;7.34;87.69;99917.53;347905;28;2147;-74
2023/01/13 00:30:01;;;;;;;;;;;;;;;7.34;88.06;99923.59;350463;28;2019;-75
2023/01/13 00:30:11;;;;;;;;;;;;;;;7.33;87.96;99918.41;350210;28;972;-75
2023/01/13 00:30:22;;;;;;;;;;;;;;;7.34;87.96;99918.38;349241;28;2209;-75
2023/01/13 00:30:32;;;;;;;;;;;;;;;7.32;87.93;99914.94;345172;28;1934;-75
2023/01/13 00:30:43;;;;;;;;;;;;;;;7.33;87.72;99921.00;347312;28;1248;-75
2023/01/13 00:30:56;;;;;;;;;;;;;;;7.33;87.63;99921.00;345144;28;1974;-76
2023/01/13 00:31:07;;;;;;;;;;;;;;;7.33;87.95;99916.66;344502;28;1773;-75
2023/01/13 00:31:18;;;;;;;;;;;;;;;7.33;87.76;99916.66;344370;28;1989;-75
2023/01/13 00:31:29;;;;;;;;;;;;;;;7.33;87.83;99914.06;344518;28;1277;-75
2023/01/13 00:31:39;;;;;;;;;;;;;;;7.33;87.56;99916.66;344797;28;2273;-75
2023/01/13 00:31:49;;;;;;;;;;;;;;;7.34;87.46;99914.91;345376;28;2168;-75
2023/01/13 00:31:59;;;;;;;;;;;;;;;7.34;87.83;99917.53;345144;28;820;-75
2023/01/13 00:32:10;;;;;;;;;;;;;;;7.34;87.92;99917.53;346407;28;2167;-75
2023/01/13 00:32:20;;;;;;;;;;;;;;;7.34;87.78;99917.53;347840;28;1708;-75
2023/01/13 00:32:30;;;;;;;;;;;;;;;7.33;87.54;99915.81;345802;28;2004;-75
2023/01/13 00:32:40;;;;;;;;;;;;;;;7.33;87.92;99921.00;344089;28;1550;-74
2023/01/13 00:32:50;;;;;;;;;;;;;;;7.32;87.52;99914.09;340523;29;2076;-74
2023/01/13 00:33:01;;;;;;;;;;;;;;;7.33;87.44;99921.00;336863;29;2237;-74
2023/01/13 00:33:11;;;;;;;;;;;;;;;7.32;87.86;99914.09;335350;29;2029;-74
2023/01/13 00:33:21;;;;;;;;;;;;;;;7.31;87.37;99920.19;332729;29;2288;-74
2023/01/13 00:33:31;;;;;;;;;;;;;;;7.30;87.43;99916.72;333389;29;1899;-74
2023/01/13 00:33:42;;;;;;;;;;;;;;;7.30;87.49;99918.47;336718;29;1724;-74
2023/01/13 00:33:52;;;;;;;;;;;;;;;7.30;87.69;99918.47;336704;29;2140;-74
2023/01/13 00:34:03;;;;;;;;;;;;;;;7.29;87.88;99917.63;337127;29;2014;-74
2023/01/13 00:34:13;;;;;;;;;;;;;;;7.29;87.15;99914.16;342863;28;1214;-74
2023/01/13 00:34:23;;;;;;;;;;;;;;;7.29;87.58;99920.22;340015;28;2150;-74
2023/01/13 00:34:33;;;;;;;;;;;;;;;7.29;87.80;99919.38;338065;29;1980;-74
2023/01/13 00:34:44;;;;;;;;;;;;;;;7.30;87.71;99915.88;332404;29;2173;-74
2023/01/13 00:34:54;;;;;;;;;;;;;;;7.30;87.70;99915.88;329532;29;2554;-75
2023/01/13 00:35:04;;;;;;;;;;;;;;;7.31;87.29;99917.59;328845;30;1489;-75
2023/01/13 00:35:15;;;;;;;;;;;;;;;7.30;87.42;99916.72;325537;30;2471;-75
2023/01/13 00:35:25;;;;;;;;;;;;;;;7.31;87.51;99925.41;326500;30;2567;-75
2023/01/13 00:35:35;;;;;;;;;;;;;;;7.29;87.55;99909.81;325717;30;2160;-75
2023/01/13 00:35:54;;;;;;;;;;;;;;;7.30;87.88;99926.28;322962;30;2574;-75
2023/01/13 00:36:04;;;;;;;;;;;;;;;7.30;87.92;99915.88;318527;31;2025;-75
2023/01/13 00:36:15;;;;;;;;;;;;;;;7.30;87.42;99915.88;314313;31;1519;-75
2023/01/13 00:36:25;;;;;;;;;;;;;;;7.30;87.83;99916.72;315171;31;1926;-76
2023/01/13 00:36:35;;;;;;;;;;;;;;;7.31;87.33;99920.19;314306;31;2032;-76
2023/01/13 00:36:45;;;;;;;;;;;;;;;7.30;87.62;99923.69;312763;31;5866;-76
2023/01/13 00:36:56;;;;;;;;;;;;;;;7.30;87.43;99915.88;313368;31;3606;-75
2023/01/13 00:37:07;;;;;;;;;;;;;;;7.30;87.23;99921.94;311129;31;3076;-75
2023/01/13 00:37:17;;;;;;;;;;;;;;;7.30;87.61;99915.88;312636;31;2694;-76
2023/01/13 00:37:27;;;;;;;;;;;;;;;7.30;87.55;99915.88;315991;31;3220;-76
2023/01/13 00:37:38;;;;;;;;;;;;;;;7.29;87.29;99912.41;316094;31;3528;-76
2023/01/13 00:37:48;;;;;;;;;;;;;;;7.30;87.55;99913.28;314078;31;2131;-76
2023/01/13 00:37:58;;;;;;;;;;;;;;;7.30;87.16;99915.88;314367;31;3369;-76
2023/01/13 00:38:08;;;;;;;;;;;;;;;7.29;87.09;99916.75;313907;31;2204;-76
2023/01/13 00:38:19;;;;;;;;;;;;;;;7.29;87.17;99916.75;315909;31;2011;-76
2023/01/13 00:38:29;;;;;;;;;;;;;;;7.29;87.25;99914.16;313978;31;2300;-76
2023/01/13 00:38:41;;;;;;;;;;;;;;;7.29;86.97;99914.16;311285;31;2885;-76
2023/01/13 00:38:51;;;;;;;;;;;;;;;7.29;87.28;99920.22;312959;31;3780;-75
2023/01/13 00:39:02;;;;;;;;;;;;;;;7.28;87.20;99913.31;312101;31;2362;-75
2023/01/13 00:39:12;;;;;;;;;;;;;;;7.30;86.96;99915.88;307010;31;4938;-75
2023/01/13 00:39:22;;;;;;;;;;;;;;;7.30;87.40;99915.88;304710;31;4131;-75
2023/01/13 00:39:32;;;;;;;;;;;;;;;7.29;87.53;99916.75;306595;32;2151;-75
2023/01/13 00:39:43;;;;;;;;;;;;;;;7.30;87.17;99923.69;305908;31;4597;-75
2023/01/13 00:39:53;;;;;;;;;;;;;;;7.29;87.08;99911.56;303651;32;4667;-75
2023/01/13 00:40:04;;;;;;;;;;;;;;;7.29;86.89;99915.03;305087;32;2043;-75
2023/01/13 00:40:14;;;;;;;;;;;;;;;7.28;86.77;99917.66;304467;32;4197;-75
2023/01/13 00:40:24;;;;;;;;;;;;;;;7.29;87.21;99914.16;304512;32;3331;-75
2023/01/13 00:40:34;;;;;;;;;;;;;;;7.28;86.89;99913.31;304704;32;2092;-75
2023/01/13 00:40:48;;;;;;;;;;;;;;;7.28;87.22;99915.91;305729;32;3527;-75
2023/01/13 00:41:05;;;;;;;;;;;;;;;7.27;87.34;99906.38;304609;32;4494;-75
2023/01/13 00:41:20;;;;;;;;;;;;;;;7.27;86.90;99910.75;303838;32;5475;-75
2023/01/13 00:43:21;;;;;;;;;;;;;;;7.28;87.08;99918.50;301986;32;6132;-75
2023/01/13 00:43:26;;;;;;;;;;;;;;;7.28;86.70;99917.66;279820;35;7846;-75
2023/01/13 00:43:37;;;;;;;;;;;;;;;7.29;86.88;99914.16;280365;35;9051;-75
2023/01/13 00:43:50;;;;;;;;;;;;;;;7.29;87.33;99914.16;280777;35;1499;-76
2023/01/13 00:44:00;;;;;;;;;;;;;;;7.29;87.17;99914.16;280500;35;8256;-76
2023/01/13 00:44:10;;;;;;;;;;;;;;;7.29;87.19;99914.16;278778;35;8814;-75
2023/01/13 00:44:21;;;;;;;;;;;;;;;7.29;86.59;99916.75;279431;35;2197;-74
2023/01/13 00:44:31;;;;;;;;;;;;;;;7.28;86.83;99913.31;279091;35;2164;-75
2023/01/13 00:44:42;;;;;;;;;;;;;;;7.29;87.10;99914.16;279043;35;9350;-75
2023/01/13 00:47:13;;;;;;;;;;;;;;;7.30;86.86;99915.88;2487610;27;19919;-74
2023/01/13 00:47:24;;;;;;;;;;;;;;;7.30;86.85;99915.88;353002;28;2086;-74
2023/01/13 00:47:34;;;;;;;;;;;;;;;7.30;86.97;99915.88;351903;28;2284;-74
2023/01/13 00:47:44;;;;;;;;;;;;;;;7.30;87.16;99910.66;350262;28;1373;-74
2023/01/13 00:47:54;;;;;;;;;;;;;;;7.31;86.84;99918.44;349360;28;2157;-74
2023/01/13 00:48:05;;;;;;;;;;;;;;;7.31;86.94;99912.38;350480;28;2027;-74
2023/01/13 00:48:15;;;;;;;;;;;;;;;7.29;86.96;99911.56;350295;28;1341;-74
2023/01/13 00:48:25;;;;;;;;;;;;;;;7.28;87.25;99915.06;351759;28;1839;-74
2023/01/13 00:48:36;;;;;;;;;;;;;;;7.28;86.88;99912.44;350806;28;1985;-74
2023/01/13 00:48:46;;;;;;;;;;;;;;;7.29;87.31;99916.75;350748;28;824;-74
2023/01/13 00:48:57;;;;;;;;;;;;;;;7.29;86.89;99914.16;351741;28;808;-74
2023/01/13 00:49:07;;;;;;;;;;;;;;;7.28;86.95;99912.44;348159;28;2294;-74
2023/01/13 00:49:17;;;;;;;;;;;;;;;7.28;86.92;99912.44;347322;28;2100;-74
2023/01/13 00:49:27;;;;;;;;;;;;;;;7.28;86.77;99912.44;346493;28;919;-74
2023/01/13 00:49:38;;;;;;;;;;;;;;;7.28;87.48;99910.69;344319;28;2211;-75
2023/01/13 00:49:48;;;;;;;;;;;;;;;7.28;87.29;99907.25;346076;28;2098;-74
2023/01/13 00:49:59;;;;;;;;;;;;;;;7.28;87.50;99913.31;347441;28;816;-74
2023/01/13 00:50:09;;;;;;;;;;;;;;;7.28;87.30;99912.44;347763;28;2046;-74
2023/01/13 00:50:19;;;;;;;;;;;;;;;7.26;87.45;99914.22;348853;28;2106;-74
2023/01/13 00:50:30;;;;;;;;;;;;;;;7.26;87.36;99914.22;350457;28;788;-74
2023/01/13 00:50:40;;;;;;;;;;;;;;;7.26;87.02;99909.88;351165;28;1572;-75
2023/01/13 00:50:56;;;;;;;;;;;;;;;7.26;87.12;99914.22;347937;28;1502;-75
2023/01/13 00:51:08;;;;;;;;;;;;;;;7.25;87.06;99909.91;346941;28;2012;-74
2023/01/13 00:51:19;;;;;;;;;;;;;;;7.25;87.06;99912.50;345724;28;1885;-75
2023/01/13 00:51:29;;;;;;;;;;;;;;;7.25;86.90;99913.38;349150;28;761;-75
2023/01/13 00:51:39;;;;;;;;;;;;;;;7.25;86.74;99913.38;348563;28;2124;-75
2023/01/13 00:51:50;;;;;;;;;;;;;;;7.26;86.88;99914.22;349975;28;2055;-75
2023/01/13 00:52:00;;;;;;;;;;;;;;;7.26;87.16;99909.03;349203;28;605;-75
2023/01/13 00:52:10;;;;;;;;;;;;;;;7.27;87.34;99921.16;348623;28;2113;-74
2023/01/13 00:52:21;;;;;;;;;;;;;;;7.27;87.36;99908.13;348360;28;2108;-74
2023/01/13 00:52:31;;;;;;;;;;;;;;;7.28;87.01;99908.09;347515;28;831;-74
2023/01/13 00:52:42;;;;;;;;;;;;;;;7.28;87.08;99907.25;345924;28;1279;-75
2023/01/13 00:52:52;;;;;;;;;;;;;;;7.29;86.97;99915.03;347570;28;2047;-74
2023/01/13 00:53:02;;;;;;;;;;;;;;;7.27;86.68;99910.75;347520;28;1995;-74
2023/01/13 00:53:13;;;;;;;;;;;;;;;7.28;87.32;99912.44;348752;28;1208;-73
2023/01/13 00:53:23;;;;;;;;;;;;;;;7.28;87.25;99909.84;350376;28;2131;-73
2023/01/13 00:53:36;;;;;;;;;;;;;;;7.27;86.77;99909.00;351461;28;2075;-75
2023/01/13 00:53:47;;;;;;;;;;;;;;;7.28;86.75;99912.44;347341;28;1915;-75
2023/01/13 00:53:57;;;;;;;;;;;;;;;7.29;86.84;99914.16;346416;28;1247;-75
2023/01/13 00:54:08;;;;;;;;;;;;;;;7.28;86.48;99907.25;348244;28;1986;-74
2023/01/13 00:54:18;;;;;;;;;;;;;;;7.27;86.78;99913.34;348979;28;2180;-74
2023/01/13 00:54:28;;;;;;;;;;;;;;;7.28;86.57;99913.31;347573;28;785;-74
2023/01/13 00:54:38;;;;;;;;;;;;;;;7.29;86.60;99914.16;344850;28;2080;-74
2023/01/13 00:54:49;;;;;;;;;;;;;;;7.29;86.84;99911.56;346477;28;1678;-74
2023/01/13 00:54:59;;;;;;;;;;;;;;;7.29;86.77;99908.94;346257;28;1289;-74
2023/01/13 00:55:10;;;;;;;;;;;;;;;7.29;86.42;99911.56;345377;28;2006;-74
2023/01/13 00:55:20;;;;;;;;;;;;;;;7.29;86.40;99914.16;345048;28;2185;-74
2023/01/13 00:55:31;;;;;;;;;;;;;;;7.29;86.57;99911.56;343696;28;1236;-74
2023/01/13 00:55:41;;;;;;;;;;;;;;;7.29;86.98;99914.16;347020;28;2163;-74
2023/01/13 00:56:01;;;;;;;;;;;;;;;7.29;86.74;99919.38;342701;28;1985;-74
2023/01/13 00:56:19;;;;;;;;;;;;;;;7.29;86.51;99914.16;340402;28;1312;-74
2023/01/13 00:56:29;;;;;;;;;;;;;;;7.29;86.49;99914.16;342191;28;1330;-74
2023/01/13 00:56:39;;;;;;;;;;;;;;;7.29;86.81;99914.16;340899;29;2017;-75
2023/01/13 00:56:49;;;;;;;;;;;;;;;7.28;86.73;99912.44;341240;28;2044;-75
2023/01/13 00:57:00;;;;;;;;;;;;;;;7.28;86.82;99913.31;340962;29;865;-74
2023/01/13 00:57:10;;;;;;;;;;;;;;;7.27;87.08;99906.38;342873;28;2062;-74
2023/01/13 00:57:20;;;;;;;;;;;;;;;7.28;86.92;99909.84;338528;29;2259;-74
2023/01/13 00:57:30;;;;;;;;;;;;;;;7.29;86.86;99914.16;337046;29;878;-74
2023/01/13 00:57:41;;;;;;;;;;;;;;;7.28;87.12;99908.09;336376;29;2168;-74
2023/01/13 00:57:51;;;;;;;;;;;;;;;7.28;86.99;99912.44;334228;29;2152;-74
2023/01/13 00:58:04;;;;;;;;;;;;;;;7.28;86.68;99912.44;333309;29;1226;-75
2023/01/13 00:58:14;;;;;;;;;;;;;;;7.27;86.95;99914.19;335586;29;1312;-75
2023/01/13 00:58:24;;;;;;;;;;;;;;;7.27;87.13;99910.75;331700;29;1494;-74
2023/01/13 00:58:34;;;;;;;;;;;;;;;7.28;87.15;99917.66;331992;29;1985;-74
2023/01/13 00:58:45;;;;;;;;;;;;;;;7.27;86.82;99913.34;333308;29;945;-74
2023/01/13 00:58:57;;;;;;;;;;;;;;;7.27;86.83;99910.75;332789;29;1470;-75
2023/01/13 00:59:10;;;;;;;;;;;;;;;7.26;86.67;99909.88;333608;29;1853;-74
2023/01/13 00:59:20;;;;;;;;;;;;;;;7.26;86.33;99909.03;332740;29;2232;-74
2023/01/13 00:59:31;;;;;;;;;;;;;;;7.26;86.57;99914.22;330727;29;947;-74
2023/01/13 00:59:41;;;;;;;;;;;;;;;7.27;86.86;99915.94;329741;29;2382;-75
2023/01/13 00:59:52;;;;;;;;;;;;;;;7.25;86.39;99909.91;327534;30;2420;-74
2023/01/13 01:00:02;;;;;;;;;;;;;;;7.25;86.63;99908.16;328304;30;915;-74
2023/01/13 01:00:13;;;;;;;;;;;;;;;7.25;86.84;99913.38;327529;29;2366;-75
2023/01/13 01:00:23;;;;;;;;;;;;;;;7.25;86.91;99904.72;329928;29;2401;-75
2023/01/13 01:00:33;;;;;;;;;;;;;;;7.24;86.35;99914.25;331715;29;1601;-75
2023/01/13 01:00:44;;;;;;;;;;;;;;;7.25;86.83;99907.31;330703;29;1329;-75
2023/01/13 01:00:58;;;;;;;;;;;;;;;7.26;86.32;99906.41;327263;30;2025;-75
2023/01/13 01:01:09;;;;;;;;;;;;;;;7.25;86.64;99910.78;326871;30;2140;-74
2023/01/13 01:01:20;;;;;;;;;;;;;;;7.25;86.89;99915.13;328766;29;2777;-74
2023/01/13 01:01:30;;;;;;;;;;;;;;;7.26;86.32;99909.03;328291;30;1080;-74
2023/01/13 01:01:40;;;;;;;;;;;;;;;7.26;86.63;99909.88;325172;30;2836;-74
2023/01/13 01:01:51;;;;;;;;;;;;;;;7.25;86.49;99905.56;319118;30;3518;-74
2023/01/13 01:02:01;;;;;;;;;;;;;;;7.25;86.52;99907.31;316315;31;838;-74
2023/01/13 01:02:11;;;;;;;;;;;;;;;7.26;86.72;99915.09;316575;31;3425;-74
2023/01/13 01:02:21;;;;;;;;;;;;;;;7.26;86.39;99909.03;317646;30;2971;-74
2023/01/13 01:02:31;;;;;;;;;;;;;;;7.26;86.20;99916.84;317657;31;917;-75
2023/01/13 01:02:42;;;;;;;;;;;;;;;7.25;86.52;99907.31;317940;31;2738;-74
2023/01/13 01:02:52;;;;;;;;;;;;;;;7.24;86.66;99911.66;313916;31;2175;-74
2023/01/13 01:03:06;;;;;;;;;;;;;;;7.25;86.55;99907.31;312988;31;1347;-75
2023/01/13 01:03:16;;;;;;;;;;;;;;;7.23;86.16;99903.88;308834;32;906;-75
2023/01/13 01:03:28;;;;;;;;;;;;;;;7.24;86.68;99911.66;310758;31;2805;-74
2023/01/13 01:03:38;;;;;;;;;;;;;;;7.24;86.61;99910.81;309765;31;3662;-74